createdAt,value
2023-05-18T00:02:10.428Z,2.70
2023-05-18T00:06:12.182Z,2.97
2023-05-18T00:10:13.920Z,2.40
2023-05-18T00:14:15.688Z,2.65
2023-05-18T00:18:17.389Z,2.65
2023-05-18T00:22:19.298Z,3.00
2023-05-18T00:26:21.001Z,2.90
2023-05-18T00:30:25.469Z,2.55
2023-05-18T00:34:27.208Z,3.12
2023-05-18T00:38:28.870Z,2.60
2023-05-18T00:42:30.644Z,2.80
2023-05-18T00:46:32.749Z,2.97
2023-05-18T00:50:35.280Z,3.45
2023-05-18T00:54:37.061Z,3.00
2023-05-18T00:58:39.950Z,4.07
2023-05-18T01:02:46.107Z,3.90
2023-05-18T01:06:48.322Z,3.87
2023-05-18T01:10:56.060Z,3.75
2023-05-18T01:15:10.309Z,3.90
2023-05-18T01:19:42.116Z,4.55
2023-05-18T01:24:11.140Z,5.07
2023-05-18T01:28:17.085Z,5.95
2023-05-18T01:32:22.367Z,6.97
2023-05-18T01:36:24.207Z,6.25
2023-05-18T01:40:28.082Z,4.93
2023-05-18T01:44:50.424Z,4.20
2023-05-18T01:48:56.735Z,4.10
2023-05-18T01:53:05.015Z,4.00
2023-05-18T01:57:08.221Z,3.47
2023-05-18T02:01:10.365Z,3.62
2023-05-18T02:05:15.491Z,3.67
2023-05-18T02:09:17.194Z,3.83
2023-05-18T02:13:18.874Z,3.62
2023-05-18T02:17:21.915Z,4.10
2023-05-18T02:21:23.613Z,3.90
2023-05-18T02:25:25.915Z,3.20
2023-05-18T02:29:27.857Z,3.75
2023-05-18T02:33:39.560Z,4.00
2023-05-18T02:37:44.027Z,4.55
2023-05-18T02:41:45.755Z,3.92
2023-05-18T02:45:47.466Z,3.22
2023-05-18T02:49:49.155Z,3.58
2023-05-18T02:53:51.487Z,4.30
2023-05-18T02:57:57.487Z,3.42
2023-05-18T03:01:59.251Z,4.50
2023-05-18T03:06:02.510Z,3.87
2023-05-18T03:10:04.725Z,3.97
2023-05-18T03:14:06.479Z,2.80
2023-05-18T03:18:08.202Z,4.43
2023-05-18T03:22:10.001Z,4.80
2023-05-18T03:26:12.284Z,4.03
2023-05-18T03:30:14.109Z,4.68
2023-05-18T03:34:16.008Z,4.50
2023-05-18T03:38:17.677Z,4.32
2023-05-18T03:42:19.402Z,4.70
2023-05-18T03:46:21.162Z,4.57
2023-05-18T03:50:22.981Z,4.80
2023-05-18T03:54:24.754Z,4.60
2023-05-18T03:58:27.382Z,5.12
2023-05-18T04:02:29.244Z,4.70
2023-05-18T04:06:31.050Z,4.35
2023-05-18T04:10:32.709Z,4.93
2023-05-18T04:14:35.091Z,5.28
2023-05-18T04:18:37.278Z,5.00
2023-05-18T04:22:43.494Z,4.97
2023-05-18T04:26:46.424Z,4.57
2023-05-18T04:30:48.170Z,5.75
2023-05-18T04:34:50.454Z,5.40
2023-05-18T04:38:52.751Z,5.40
2023-05-18T04:42:54.494Z,4.85
2023-05-18T04:46:56.809Z,4.90
2023-05-18T04:50:58.546Z,4.80
2023-05-18T04:55:00.583Z,5.47
2023-05-18T04:59:02.574Z,5.20
2023-05-18T05:03:04.623Z,4.68
2023-05-18T05:07:06.575Z,4.55
2023-05-18T05:11:08.341Z,4.45
2023-05-18T05:15:10.590Z,4.15
2023-05-18T05:19:12.393Z,5.35
2023-05-18T05:23:14.258Z,4.70
2023-05-18T05:27:16.049Z,4.68
2023-05-18T05:31:17.783Z,5.18
2023-05-18T05:35:19.611Z,5.70
2023-05-18T05:39:21.369Z,4.82
2023-05-18T05:43:23.089Z,5.00
2023-05-18T05:47:25.046Z,4.80
2023-05-18T05:51:26.878Z,4.65
2023-05-18T05:55:28.783Z,5.03
2023-05-18T05:59:30.934Z,5.18
2023-05-18T06:03:35.171Z,4.87
2023-05-18T06:07:38.359Z,4.97
2023-05-18T06:11:40.186Z,4.62
2023-05-18T06:15:41.961Z,4.45
2023-05-18T06:19:43.660Z,3.83
2023-05-18T06:23:45.395Z,4.18
2023-05-18T06:27:47.068Z,4.35
2023-05-18T06:31:48.928Z,4.05
2023-05-18T06:35:51.402Z,3.83
2023-05-18T06:39:53.117Z,4.10
2023-05-18T06:43:54.794Z,3.62
2023-05-18T06:47:56.689Z,4.15
2023-05-18T06:51:58.449Z,3.17
2023-05-18T06:56:00.591Z,3.80
2023-05-18T07:00:02.455Z,3.30
2023-05-18T07:04:04.383Z,3.20
2023-05-18T07:08:07.090Z,3.97
2023-05-18T07:12:09.401Z,4.22
2023-05-18T07:16:11.515Z,3.60
2023-05-18T07:20:13.328Z,4.45
2023-05-18T07:24:15.507Z,3.60
2023-05-18T07:28:17.391Z,3.15
2023-05-18T07:32:19.218Z,3.67
2023-05-18T07:36:21.812Z,4.75
2023-05-18T07:40:23.554Z,3.70
2023-05-18T07:44:25.494Z,3.37
2023-05-18T07:48:27.207Z,3.72
2023-05-18T07:52:28.993Z,3.33
2023-05-18T07:56:31.550Z,3.28
2023-05-18T08:00:34.082Z,3.08
2023-05-18T08:04:35.957Z,2.97
2023-05-18T08:08:37.888Z,3.20
2023-05-18T08:12:39.688Z,2.97
2023-05-18T08:16:41.478Z,2.53
2023-05-18T08:20:43.807Z,2.80
2023-05-18T08:24:45.483Z,2.78
2023-05-18T08:28:48.696Z,4.03
2023-05-18T08:32:50.500Z,3.00
2023-05-18T08:36:52.475Z,2.67
2023-05-18T08:41:26.524Z,2.67
2023-05-18T08:46:03.540Z,2.97
2023-05-18T08:50:06.178Z,2.97
2023-05-18T08:54:11.581Z,2.72
2023-05-18T08:58:16.556Z,3.00
2023-05-18T09:02:18.628Z,5.68
2023-05-18T09:06:23.973Z,2.85
2023-05-18T09:10:26.320Z,2.65
2023-05-18T09:14:28.905Z,8.70
2023-05-18T09:18:30.676Z,3.28
2023-05-18T09:22:33.471Z,6.25
2023-05-18T09:26:35.429Z,2.55
2023-05-18T09:30:44.137Z,2.53
2023-05-18T09:34:46.023Z,2.75
2023-05-18T09:38:47.747Z,2.72
2023-05-18T09:42:49.648Z,2.37
2023-05-18T09:46:56.379Z,3.00
2023-05-18T09:50:59.834Z,2.50
2023-05-18T09:55:01.687Z,2.72
2023-05-18T09:59:14.883Z,2.62
2023-05-18T10:03:17.818Z,2.60
2023-05-18T10:07:19.622Z,2.50
2023-05-18T10:11:21.957Z,2.80
2023-05-18T10:15:24.383Z,2.72
2023-05-18T10:19:26.918Z,2.60
2023-05-18T10:23:32.219Z,2.70
2023-05-18T10:27:36.356Z,2.22
2023-05-18T10:31:38.782Z,3.05
2023-05-18T10:35:41.119Z,2.80
2023-05-18T10:39:45.542Z,2.50
2023-05-18T10:43:48.921Z,2.35
2023-05-18T10:47:54.677Z,2.67
2023-05-18T10:51:59.274Z,2.62
2023-05-18T10:56:01.705Z,3.03
2023-05-18T11:00:07.610Z,2.37
2023-05-18T11:04:09.586Z,2.60
2023-05-18T11:08:11.339Z,3.25
2023-05-18T11:12:14.104Z,2.75
2023-05-18T11:16:17.166Z,2.65
2023-05-18T11:20:19.167Z,2.15
2023-05-18T11:24:22.842Z,2.92
2023-05-18T11:28:24.684Z,2.65
2023-05-18T11:32:32.943Z,3.15
2023-05-18T11:36:45.054Z,13.55
2023-05-18T11:40:48.822Z,2.55
2023-05-18T11:44:56.904Z,2.50
2023-05-18T11:49:09.002Z,2.25
2023-05-18T11:53:16.275Z,2.62
2023-05-18T12:01:23.574Z,2.75
2023-05-18T12:05:30.194Z,2.15
2023-05-18T12:09:32.266Z,2.45
2023-05-18T12:13:34.372Z,2.70
2023-05-18T12:17:47.422Z,2.75
2023-05-18T12:21:49.343Z,2.72
2023-05-18T12:25:51.755Z,2.10
2023-05-18T12:29:54.730Z,2.70
2023-05-18T12:33:58.979Z,2.33
2023-05-18T12:38:01.659Z,2.72
2023-05-18T12:42:11.729Z,2.37
2023-05-18T12:46:13.633Z,1.70
2023-05-18T12:50:15.383Z,2.70
2023-05-18T12:54:27.436Z,2.37
2023-05-18T12:58:29.185Z,2.03
2023-05-18T13:02:36.811Z,2.60
2023-05-18T13:06:39.603Z,3.20
2023-05-18T13:10:44.121Z,2.47
2023-05-18T13:14:46.922Z,2.40
2023-05-18T13:18:56.307Z,3.33
2023-05-18T13:23:01.833Z,2.78
2023-05-18T13:27:03.606Z,2.55
2023-05-18T13:31:05.587Z,2.35
2023-05-18T13:35:07.639Z,2.67
2023-05-18T13:39:09.659Z,2.70
2023-05-18T13:43:13.775Z,2.60
2023-05-18T13:47:16.019Z,3.08
2023-05-18T13:51:18.017Z,2.70
2023-05-18T13:55:19.931Z,2.45
2023-05-18T13:59:22.443Z,2.33
2023-05-18T14:03:24.571Z,2.87
2023-05-18T14:07:27.116Z,2.97
2023-05-18T14:11:28.934Z,2.47
2023-05-18T14:15:30.756Z,2.35
2023-05-18T14:19:32.532Z,2.55
2023-05-18T14:23:34.251Z,2.40
2023-05-18T14:27:35.958Z,2.10
2023-05-18T14:31:37.801Z,2.28
2023-05-18T14:35:40.211Z,2.10
2023-05-18T14:39:42.001Z,2.10
2023-05-18T14:43:45.707Z,2.72
2023-05-18T14:47:48.047Z,2.45
2023-05-18T14:51:49.894Z,1.83
2023-05-18T14:55:55.114Z,2.70
2023-05-18T15:00:00.569Z,2.05
2023-05-18T15:04:02.473Z,2.33
2023-05-18T15:08:04.398Z,2.30
2023-05-18T15:12:06.415Z,2.03
2023-05-18T15:16:08.306Z,1.87
2023-05-18T15:20:11.125Z,2.00
2023-05-18T15:24:12.892Z,2.00
2023-05-18T15:28:14.707Z,1.95
2023-05-18T15:32:16.548Z,2.42
2023-05-18T15:36:18.618Z,2.30
2023-05-18T15:40:20.494Z,2.50
2023-05-18T15:44:22.256Z,2.33
2023-05-18T15:48:24.024Z,2.45
2023-05-18T15:52:25.758Z,2.28
2023-05-18T15:56:27.722Z,2.72
2023-05-18T16:00:30.321Z,2.53
2023-05-18T16:04:32.320Z,2.50
2023-05-18T16:08:34.072Z,2.22
2023-05-18T16:12:35.896Z,1.87
2023-05-18T16:16:37.750Z,1.90
2023-05-18T16:20:39.570Z,2.42
2023-05-18T16:24:41.387Z,2.22
2023-05-18T16:28:43.141Z,1.85
2023-05-18T16:32:45.019Z,2.62
2023-05-18T16:36:46.924Z,2.40
2023-05-18T16:40:48.719Z,2.35
2023-05-18T16:44:50.454Z,2.20
2023-05-18T16:48:52.187Z,1.98
2023-05-18T16:52:54.074Z,2.12
2023-05-18T16:56:56.469Z,2.30
2023-05-18T17:00:58.280Z,2.33
2023-05-18T17:05:00.216Z,2.25
2023-05-18T17:09:02.697Z,2.45
2023-05-18T17:13:06.646Z,2.20
2023-05-18T17:17:08.518Z,2.35
2023-05-18T17:21:10.420Z,1.85
2023-05-18T17:25:12.500Z,1.95
2023-05-18T17:29:17.108Z,2.37
2023-05-18T17:33:20.097Z,1.60
2023-05-18T17:37:21.939Z,1.90
2023-05-18T17:41:25.635Z,2.30
2023-05-18T17:45:27.458Z,1.90
2023-05-18T17:49:29.219Z,1.98
2023-05-18T17:53:31.079Z,1.95
2023-05-18T17:57:33.777Z,2.20
2023-05-18T18:01:35.955Z,2.10
2023-05-18T18:05:37.858Z,2.53
2023-05-18T18:09:39.690Z,1.95
2023-05-18T18:13:41.533Z,2.03
2023-05-18T18:17:43.338Z,2.30
2023-05-18T18:21:45.080Z,1.90
2023-05-18T18:25:46.876Z,1.90
2023-05-18T18:29:49.289Z,1.80
2023-05-18T18:33:51.262Z,2.40
2023-05-18T18:37:52.992Z,2.50
2023-05-18T18:41:54.825Z,1.77
2023-05-18T18:45:57.152Z,2.10
2023-05-18T18:49:59.196Z,2.10
2023-05-18T18:54:01.107Z,2.20
2023-05-18T18:58:02.948Z,2.10
2023-05-18T19:02:05.131Z,1.90
2023-05-18T19:06:07.113Z,1.75
2023-05-18T19:10:10.060Z,2.00
2023-05-18T19:14:11.802Z,2.00
2023-05-18T19:18:14.712Z,1.95
2023-05-18T19:22:16.524Z,1.70
2023-05-18T19:26:18.516Z,2.20
2023-05-18T19:30:21.524Z,1.90
2023-05-18T19:34:23.834Z,2.15
2023-05-18T19:38:25.596Z,2.17
2023-05-18T19:42:27.635Z,2.17
2023-05-18T19:46:29.612Z,2.05
2023-05-18T19:50:31.562Z,2.22
2023-05-18T19:54:34.036Z,2.05
2023-05-18T19:58:36.211Z,2.28
2023-05-18T20:02:37.998Z,2.20
2023-05-18T20:06:39.897Z,2.10
2023-05-18T20:10:41.775Z,2.87
2023-05-18T20:14:43.753Z,2.25
2023-05-18T20:18:45.796Z,2.37
2023-05-18T20:22:47.642Z,2.42
2023-05-18T20:26:50.531Z,2.33
2023-05-18T20:30:52.311Z,2.22
2023-05-18T20:34:54.100Z,2.20
2023-05-18T20:38:55.948Z,2.20
2023-05-18T20:42:58.940Z,2.28
2023-05-18T20:47:01.023Z,2.20
2023-05-18T20:51:02.890Z,2.47
2023-05-18T20:55:04.918Z,2.40
2023-05-18T20:59:06.634Z,2.10
2023-05-18T21:03:08.535Z,3.05
2023-05-18T21:07:10.370Z,2.20
2023-05-18T21:11:12.145Z,2.22
2023-05-18T21:15:13.886Z,2.53
2023-05-18T21:19:16.407Z,2.65
2023-05-18T21:23:18.304Z,2.45
2023-05-18T21:27:20.280Z,2.15
2023-05-18T21:31:22.073Z,1.92
2023-05-18T21:35:24.055Z,2.12
2023-05-18T21:39:25.847Z,1.98
2023-05-18T21:43:27.723Z,2.35
2023-05-18T21:47:29.500Z,2.30
2023-05-18T21:51:31.363Z,2.12
2023-05-18T21:55:33.496Z,2.40
2023-05-18T21:59:35.491Z,2.47
2023-05-18T22:03:37.864Z,2.60
2023-05-18T22:07:39.659Z,2.65
2023-05-18T22:11:41.389Z,2.28
2023-05-18T22:15:43.392Z,2.00
2023-05-18T22:19:45.549Z,2.33
2023-05-18T22:23:47.316Z,2.50
2023-05-18T22:27:49.070Z,2.47
2023-05-18T22:31:51.219Z,2.28
2023-05-18T22:35:53.396Z,2.45
2023-05-18T22:39:55.408Z,2.83
2023-05-18T22:43:57.170Z,2.53
2023-05-18T22:47:59.643Z,2.60
2023-05-18T22:52:05.091Z,2.87
2023-05-18T22:56:07.551Z,2.47
2023-05-18T23:00:11.396Z,2.75
2023-05-18T23:04:13.258Z,2.85
2023-05-18T23:08:16.160Z,2.95
2023-05-18T23:12:18.445Z,2.95
2023-05-18T23:16:20.490Z,2.67
2023-05-18T23:20:22.904Z,3.00
2023-05-18T23:24:24.669Z,2.80
2023-05-18T23:28:26.721Z,2.67
2023-05-18T23:32:28.991Z,3.05
2023-05-18T23:36:34.751Z,2.78
2023-05-18T23:40:36.704Z,2.92
2023-05-18T23:44:39.056Z,3.10
2023-05-18T23:48:41.103Z,3.35
2023-05-18T23:52:46.620Z,2.75
2023-05-18T23:56:50.360Z,3.05
